Time;durP1;ratioP1;P1;durP2;ratioP2;P2;SDS_P1;SDS_P2;PMS_P1;PMS_P2;Temp;Humidity;BMP_temperature;BMP_pressure;BME280_temperature;BME280_humidity;BME280_pressure;Samples;Min_cycle;Max_cycle;Signal;HPM_P1;HPM_P2
2022/01/15 16:34:08;;;;;;;1.00;1.00;;;;;;;4.56;51.03;95172.47;2616236;54;20597;-72
2022/01/15 16:36:36;;;;;;;1.63;1.53;;;;;;;4.32;50.20;95165.31;2616939;54;20153;-72
2022/01/15 16:39:06;;;;;;;0.77;0.77;;;;;;;3.55;52.15;95170.19;2616119;47;20172;-73
2022/01/15 16:41:35;;;;;;;2.80;1.30;;;;;;;3.86;53.81;95172.19;2615927;47;20295;-75
2022/01/15 16:44:04;;;;;;;1.03;1.03;;;;;;;3.55;52.83;95175.06;2617776;52;20167;-71
2022/01/15 16:46:33;;;;;;;0.70;0.70;;;;;;;4.14;52.81;95173.28;2618109;47;20687;-73
2022/01/15 16:49:01;;;;;;;0.60;0.60;;;;;;;3.81;51.77;95131.97;2617434;47;20160;-71
2022/01/15 16:51:33;;;;;;;0.60;0.60;;;;;;;3.90;51.52;95156.38;2616841;46;20243;-70
2022/01/15 16:54:01;;;;;;;0.50;0.50;;;;;;;4.01;51.36;95168.97;2613821;47;20236;-69
2022/01/15 16:56:30;;;;;;;0.90;0.90;;;;;;;4.14;52.96;95171.22;2617734;47;20330;-71
2022/01/15 16:58:59;;;;;;;0.67;0.67;;;;;;;3.46;51.59;95077.84;2614675;39;20664;-71
2022/01/15 17:01:28;;;;;;;0.67;0.67;;;;;;;4.12;52.30;95170.34;2617377;54;20161;-73
2022/01/15 17:03:57;;;;;;;0.87;0.87;;;;;;;4.38;51.47;95172.03;2615124;39;20522;-69
2022/01/15 17:06:25;;;;;;;0.73;0.73;;;;;;;3.95;51.74;95168.59;2615246;47;20165;-71
2022/01/15 17:08:56;;;;;;;1.00;1.00;;;;;;;3.86;52.09;95172.91;2612797;47;20297;-71
2022/01/15 17:11:26;;;;;;;1.67;1.60;;;;;;;3.91;51.71;95174.66;2614099;47;20277;-72
2022/01/15 17:13:55;;;;;;;0.60;0.60;;;;;;;3.99;52.46;95160.44;2613107;47;20642;-72
2022/01/15 17:16:23;;;;;;;1.00;1.00;;;;;;;4.20;52.24;95187.72;2614411;54;20179;-72
2022/01/15 17:18:54;;;;;;;2.67;1.93;;;;;;;4.15;52.12;95152.34;2617477;47;20169;-70
2022/01/15 17:21:23;;;;;;;1.67;1.67;;;;;;;3.96;50.92;95178.47;2618184;47;20157;-69
2022/01/15 17:23:52;;;;;;;0.70;0.70;;;;;;;3.46;50.85;95145.03;2618252;47;20163;-75
2022/01/15 17:26:23;;;;;;;1.03;0.53;;;;;;;3.79;51.26;95181.53;2618092;47;20156;-70
2022/01/15 17:28:52;;;;;;;0.80;0.80;;;;;;;3.71;51.48;95172.59;2617446;47;20183;-71
2022/01/15 17:31:20;;;;;;;1.80;1.50;;;;;;;3.42;51.39;95187.50;2618088;54;20221;-72
2022/01/15 17:33:49;;;;;;;0.60;0.60;;;;;;;3.47;51.47;95186.44;2618243;47;20330;-73
2022/01/15 17:36:20;;;;;;;0.97;0.97;;;;;;;3.11;53.24;95175.59;2618183;47;20156;-73
2022/01/15 17:38:48;;;;;;;1.17;1.17;;;;;;;3.16;54.02;95155.66;2618730;47;20167;-79
2022/01/15 17:41:20;;;;;;;3.40;3.30;;;;;;;3.15;51.76;95181.44;2619472;46;20190;-81
2022/01/15 17:43:53;;;;;;;0.57;0.57;;;;;;;3.28;51.60;95189.34;2617878;54;20263;-69
2022/01/15 17:46:21;;;;;;;1.83;1.73;;;;;;;3.86;57.25;95189.75;2618038;54;20248;-70
2022/01/15 17:48:51;;;;;;;1.30;1.20;;;;;;;3.79;52.20;95179.47;2618203;39;20553;-73
2022/01/15 17:51:21;;;;;;;0.83;0.83;;;;;;;4.05;51.44;95194.47;2616689;54;20145;-72
2022/01/15 17:53:50;;;;;;;0.67;0.67;;;;;;;3.49;51.83;95189.41;2616651;54;20145;-69
2022/01/15 17:56:18;;;;;;;0.50;0.50;;;;;;;3.43;51.67;95188.97;2618182;54;20161;-71
2022/01/15 17:58:48;;;;;;;0.63;0.63;;;;;;;3.55;52.66;95184.19;2617700;47;20166;-72
2022/01/15 18:01:19;;;;;;;1.60;1.50;;;;;;;3.58;52.31;95208.19;2616088;54;20157;-73
2022/01/15 18:03:48;;;;;;;1.03;1.03;;;;;;;3.64;51.70;95184.75;2615683;39;20516;-72
2022/01/15 18:06:17;;;;;;;0.50;0.50;;;;;;;3.24;50.73;95189.09;2616365;54;20178;-77
2022/01/15 18:08:46;;;;;;;0.90;0.90;;;;;;;3.39;51.20;95199.91;2615563;47;20156;-73
2022/01/15 18:11:28;;;;;;;;;;;;;;;;;;;;;
2022/01/15 18:13:58;;;;;;;0.50;0.50;;;;;;;2.13;50.90;95118.50;2614796;54;20285;-73
2022/01/15 18:16:29;;;;;;;1.07;1.07;;;;;;;2.12;51.78;95161.00;2615510;54;20162;-71
